MMOX/OAX METAR and TAF weather

Enter ICAO airport designator
Station Type Date Time Source
MMOX METAR 2019/08/22 01:48 UTC NOAA

MMOX 220148Z 00000KT 7SM SCT070 BKN210 21/15 A3022 RMK 8/036


Station Type Date Time Source
MMOX Decoded METAR 2019/08/22 01:48 UTC NOAA

Station name not available
Aug 21, 2019 - 09:48 PM EDT / 2019.08.22 0148 UTC
Wind: Calm:0
Visibility: 7 mile(s):0
Sky conditions: mostly cloudy
Temperature: 69 F (21 C)
Dew Point: 59 F (15 C)
Relative Humidity: 68%
Pressure (altimeter): 30.22 in. Hg (1023 hPa)
ob: MMOX 220148Z 00000KT 7SM SCT070 BKN210 21/15 A3022 RMK 8/036
cycle: 2

Station Type Date Time Source
MMOX TAF 2019/08/22 06:41 UTC NOAA

TAF MMOX 220434Z 2206/2306 02004KT P6SM SCT030 BKN120
FM221800 04008KT P6SM BKN025 BKN090 PROB40 2222/2302 4SM TSRA BKN025CB
FM230300 02005KT 6SM -RA BKN030 OVC100

Example: see airport list